Time;durP1;ratioP1;P1;durP2;ratioP2;P2;SDS_P1;SDS_P2;PMS_P1;PMS_P2;Temp;Humidity;BMP_temperature;BMP_pressure;BME280_temperature;BME280_humidity;BME280_pressure;Samples;Min_cycle;Max_cycle;Signal;HPM_P1;HPM_P2
2022/03/31 00:03:58;;;;;;;0.20;0.20;;;10.80;61.70;;;;;;20486376;29;20537;-76
2022/03/31 00:13:59;;;;;;;0.40;0.20;;;10.80;61.70;;;;;;20486070;29;20038;-76
2022/03/31 00:23:59;;;;;;;0.73;0.20;;;10.80;61.70;;;;;;20469501;29;20406;-77
2022/03/31 00:34:00;;;;;;;2.20;0.30;;;10.70;61.70;;;;;;20484957;29;20434;-77
2022/03/31 00:44:00;;;;;;;0.30;0.20;;;10.70;61.60;;;;;;20485136;29;20389;-77
2022/03/31 00:54:01;;;;;;;0.63;0.30;;;10.80;61.70;;;;;;20468109;29;20382;-76
2022/03/31 01:04:02;;;;;;;0.52;0.20;;;10.80;61.70;;;;;;20482907;29;20043;-76
2022/03/31 01:14:02;;;;;;;1.08;0.30;;;10.70;61.60;;;;;;20482849;29;20035;-76
2022/03/31 01:24:04;;;;;;;0.17;0.17;;;10.70;61.60;;;;;;20466471;29;20047;-76
2022/03/31 01:34:08;;;;;;;0.77;0.40;;;10.70;61.50;;;;;;20466039;29;20171;-77
2022/03/31 01:44:09;;;;;;;0.57;0.22;;;10.70;61.40;;;;;;20481598;29;20035;-77
2022/03/31 01:54:09;;;;;;;0.68;0.30;;;10.70;61.40;;;;;;20481613;29;20394;-76
2022/03/31 02:04:10;;;;;;;0.95;0.38;;;10.70;61.40;;;;;;20507102;28;20422;-76
2022/03/31 02:24:27;;;;;;;0.20;0.20;;;10.70;61.30;;;;;;20740621;23;20044;-76
2022/03/31 02:34:28;;;;;;;0.77;0.50;;;10.70;61.40;;;;;;20511352;29;20090;-77
2022/03/31 02:44:29;;;;;;;0.40;0.20;;;10.70;61.40;;;;;;20493171;29;20118;-77
2022/03/31 03:04:49;;;;;;;0.85;0.30;;;10.60;61.40;;;;;;20507267;28;20377;-76
2022/03/31 03:14:51;;;;;;;0.60;0.30;;;10.60;61.40;;;;;;20489673;28;20073;-76
2022/03/31 03:24:52;;;;;;;0.45;0.38;;;10.60;61.50;;;;;;20506162;28;20106;-76
2022/03/31 03:34:53;;;;;;;0.80;0.32;;;10.60;61.50;;;;;;20488984;29;20375;-76
2022/03/31 03:44:54;;;;;;;1.58;0.32;;;10.60;61.50;;;;;;20488045;28;20038;-76
2022/03/31 03:54:55;;;;;;;0.57;0.25;;;10.60;61.50;;;;;;20488212;28;20033;-76
2022/03/31 04:04:55;;;;;;;1.00;0.45;;;10.60;61.50;;;;;;20502491;29;20525;-77
2022/03/31 04:14:56;;;;;;;0.83;0.40;;;10.60;61.50;;;;;;20570612;28;20030;-79
2022/03/31 04:24:57;;;;;;;0.30;0.30;;;10.50;61.40;;;;;;20646916;28;20300;-77
2022/03/31 04:34:57;;;;;;;3.17;0.65;;;10.50;61.30;;;;;;20629341;28;20129;-79
2022/03/31 04:44:58;;;;;;;0.82;0.50;;;10.60;61.40;;;;;;20552163;28;20051;-79
2022/03/31 04:54:58;;;;;;;1.58;0.63;;;10.60;61.30;;;;;;20582276;28;20421;-78
2022/03/31 05:04:59;;;;;;;1.60;0.85;;;10.50;61.20;;;;;;20567229;28;20528;-78
2022/03/31 05:14:59;;;;;;;0.55;0.40;;;10.50;61.10;;;;;;20563226;28;20031;-78
2022/03/31 05:25:00;;;;;;;2.03;0.60;;;10.60;61.20;;;;;;20578778;28;20317;-78
2022/03/31 05:35:00;;;;;;;2.17;0.60;;;10.50;61.10;;;;;;20551736;28;20512;-79
2022/03/31 05:45:01;;;;;;;2.67;1.13;;;10.60;61.20;;;;;;20577306;28;20366;-78
2022/03/31 05:55:02;;;;;;;1.10;0.50;;;10.60;61.10;;;;;;20578125;28;20057;-78
2022/03/31 06:05:03;;;;;;;1.45;0.73;;;10.60;61.10;;;;;;20595879;28;20035;-77
2022/03/31 06:15:04;;;;;;;3.53;1.25;;;10.60;61.00;;;;;;20581717;28;20074;-80
2022/03/31 06:25:06;;;;;;;1.10;0.80;;;10.60;61.00;;;;;;20647520;28;20050;-81
2022/03/31 06:35:11;;;;;;;2.67;0.73;;;10.60;61.00;;;;;;20603174;28;20026;-85
2022/03/31 06:45:14;;;;;;;2.60;1.27;;;10.60;60.90;;;;;;20616103;28;20366;-84
2022/03/31 06:55:15;;;;;;;1.35;0.70;;;10.60;60.80;;;;;;20591468;28;20509;-84
2022/03/31 07:05:15;;;;;;;1.83;0.70;;;10.60;60.80;;;;;;20632684;28;20136;-81
2022/03/31 07:15:16;;;;;;;2.00;1.05;;;10.60;60.70;;;;;;20638863;28;20039;-84
2022/03/31 07:25:16;;;;;;;2.53;1.10;;;10.60;60.70;;;;;;20586267;28;20050;-80
2022/03/31 07:35:18;;;;;;;2.67;1.20;;;10.60;60.60;;;;;;20584048;28;20022;-79
2022/03/31 07:45:19;;;;;;;1.52;1.08;;;10.60;60.60;;;;;;20500788;28;20456;-78
2022/03/31 07:55:19;;;;;;;1.58;0.82;;;10.60;60.50;;;;;;20554920;28;20134;-78
2022/03/31 08:05:25;;;;;;;2.10;1.02;;;10.60;60.40;;;;;;20645000;28;20050;-80
2022/03/31 08:15:25;;;;;;;1.52;0.90;;;10.60;60.30;;;;;;20591015;28;20043;-82
2022/03/31 08:25:26;;;;;;;3.10;1.20;;;10.60;60.20;;;;;;20580943;28;20039;-82
2022/03/31 08:35:28;;;;;;;1.73;0.85;;;10.60;60.20;;;;;;20549569;28;20118;-86
2022/03/31 08:45:29;;;;;;;2.08;0.98;;;10.60;60.10;;;;;;20580467;28;20482;-83
2022/03/31 08:55:29;;;;;;;2.78;0.95;;;10.60;60.10;;;;;;20547007;28;20027;-83
2022/03/31 09:05:37;;;;;;;3.85;1.20;;;10.60;60.00;;;;;;20561667;28;20046;-79
2022/03/31 09:15:50;;;;;;;2.50;1.10;;;10.60;60.00;;;;;;20591155;28;20169;-82
2022/03/31 09:25:51;;;;;;;2.20;1.20;;;10.60;59.90;;;;;;20594803;28;20453;-79
2022/03/31 09:35:59;;;;;;;2.03;1.10;;;10.60;59.90;;;;;;20576684;28;20038;-82
2022/03/31 09:45:59;;;;;;;1.83;0.93;;;10.60;59.80;;;;;;20576644;28;20035;-81
2022/03/31 09:56:00;;;;;;;4.50;1.25;;;10.60;59.80;;;;;;20573689;28;20073;-79
2022/03/31 10:06:01;;;;;;;2.88;1.10;;;10.60;59.70;;;;;;20597809;28;20065;-78
2022/03/31 10:16:06;;;;;;;2.85;1.40;;;10.60;59.70;;;;;;20578464;28;20038;-81
2022/03/31 10:26:07;;;;;;;3.92;1.10;;;10.60;59.10;;;;;;20574634;28;20030;-79
2022/03/31 10:36:12;;;;;;;1.50;0.87;;;10.60;58.80;;;;;;20590314;28;20046;-76
2022/03/31 10:46:18;;;;;;;3.47;1.37;;;10.60;58.80;;;;;;20574889;28;20278;-77
2022/03/31 10:56:23;;;;;;;3.00;1.23;;;10.60;58.80;;;;;;20596547;28;20405;-76
2022/03/31 11:06:24;;;;;;;3.22;1.27;;;10.60;58.90;;;;;;20585860;28;20031;-76
2022/03/31 11:16:37;;;;;;;2.22;0.85;;;10.60;58.90;;;;;;20551352;28;20071;-76
2022/03/31 11:26:40;;;;;;;5.85;1.48;;;10.70;58.90;;;;;;20599066;28;20096;-78
2022/03/31 11:36:41;;;;;;;2.40;1.33;;;10.60;58.90;;;;;;20663980;28;20044;-78
2022/03/31 11:46:47;;;;;;;1.55;0.68;;;10.70;58.90;;;;;;20663259;28;20117;-77
2022/03/31 11:56:48;;;;;;;2.00;0.90;;;10.60;58.80;;;;;;20641914;28;20034;-77
2022/03/31 12:06:48;;;;;;;1.40;0.70;;;10.70;58.80;;;;;;20594758;28;20030;-77
2022/03/31 12:16:51;;;;;;;1.50;0.63;;;10.70;58.80;;;;;;20621917;28;20043;-77
2022/03/31 12:26:56;;;;;;;4.82;1.05;;;10.70;58.80;;;;;;20636622;28;20096;-77
2022/03/31 12:36:57;;;;;;;2.95;1.00;;;10.60;58.70;;;;;;20624959;28;20038;-77
2022/03/31 12:46:59;;;;;;;1.30;0.80;;;10.70;58.80;;;;;;20642364;28;20081;-77
2022/03/31 12:57:22;;;;;;;0.85;0.60;;;10.70;58.70;;;;;;20620688;28;20046;-77
2022/03/31 13:07:27;;;;;;;1.77;0.80;;;10.70;58.70;;;;;;20579184;28;20078;-77
2022/03/31 13:17:28;;;;;;;0.93;0.65;;;10.60;58.60;;;;;;20562887;28;20501;-76
2022/03/31 13:27:28;;;;;;;1.48;0.52;;;10.70;58.60;;;;;;20561765;28;20034;-77
2022/03/31 13:37:29;;;;;;;1.05;0.40;;;10.70;58.50;;;;;;20577697;28;20113;-77
2022/03/31 13:47:29;;;;;;;0.98;0.40;;;10.70;58.40;;;;;;20560421;28;20134;-77
2022/03/31 14:07:50;;;;;;;1.55;0.60;;;10.70;58.20;;;;;;20578039;28;20385;-78
2022/03/31 14:17:54;;;;;;;0.68;0.55;;;10.70;58.20;;;;;;20570956;28;20073;-76
2022/03/31 14:27:55;;;;;;;1.10;0.60;;;10.70;58.30;;;;;;20625828;28;20046;-77
2022/03/31 14:37:55;;;;;;;1.30;0.47;;;10.70;58.30;;;;;;20585107;28;20045;-77
2022/03/31 14:47:56;;;;;;;1.40;0.80;;;10.60;58.30;;;;;;20593516;28;20544;-84
2022/03/31 14:57:58;;;;;;;1.17;0.60;;;10.60;58.20;;;;;;20591508;28;20305;-75
2022/03/31 15:07:59;;;;;;;0.98;0.68;;;10.60;58.10;;;;;;20559849;28;20039;-75
2022/03/31 15:17:59;;;;;;;1.23;0.50;;;10.60;57.90;;;;;;20553118;28;20035;-76
2022/03/31 15:28:00;;;;;;;2.47;0.57;;;10.60;57.60;;;;;;20567185;28;20125;-77
2022/03/31 15:38:00;;;;;;;1.42;0.60;;;10.50;57.40;;;;;;20561245;28;20031;-76
2022/03/31 15:48:01;;;;;;;1.38;0.80;;;10.50;57.20;;;;;;20581056;28;20113;-77
2022/03/31 15:58:02;;;;;;;1.40;1.20;;;10.50;57.10;;;;;;20573454;28;20563;-77
2022/03/31 16:08:03;;;;;;;1.05;0.57;;;10.50;57.00;;;;;;20562531;28;20393;-77
2022/03/31 16:18:03;;;;;;;2.27;0.83;;;10.50;56.80;;;;;;20569342;28;20027;-79
2022/03/31 16:28:05;;;;;;;1.13;0.57;;;10.50;56.70;;;;;;20600569;28;20800;-79
2022/03/31 16:38:05;;;;;;;2.15;0.65;;;10.40;56.70;;;;;;20584788;28;20042;-83
2022/03/31 16:48:06;;;;;;;0.70;0.50;;;10.50;56.80;;;;;;20564314;28;20065;-82
2022/03/31 16:58:07;;;;;;;0.82;0.50;;;10.40;56.60;;;;;;20581099;28;20122;-80
2022/03/31 17:08:08;;;;;;;1.00;0.50;;;10.40;56.60;;;;;;20576473;28;20066;-75
2022/03/31 17:18:09;;;;;;;0.88;0.50;;;10.40;56.40;;;;;;20566058;28;20089;-76
2022/03/31 17:28:12;;;;;;;0.38;0.38;;;10.40;56.40;;;;;;20545924;28;20489;-75
2022/03/31 17:38:12;;;;;;;2.83;0.60;;;10.40;56.50;;;;;;20595542;28;20125;-76
2022/03/31 17:48:13;;;;;;;0.85;0.65;;;10.30;56.50;;;;;;20579170;28;20470;-80
2022/03/31 17:58:13;;;;;;;1.58;0.60;;;10.30;56.50;;;;;;20593919;28;20118;-80
2022/03/31 18:08:14;;;;;;;1.42;0.60;;;10.30;56.60;;;;;;20576960;28;20440;-76
2022/03/31 18:18:16;;;;;;;0.90;0.40;;;10.30;56.60;;;;;;20593255;28;20489;-78
2022/03/31 18:28:16;;;;;;;0.93;0.52;;;10.30;56.70;;;;;;20591105;28;20630;-77
2022/03/31 18:38:17;;;;;;;0.88;0.60;;;10.30;56.70;;;;;;20590864;28;20038;-78
2022/03/31 18:48:18;;;;;;;1.95;0.40;;;10.30;56.60;;;;;;20573664;28;20215;-75
2022/03/31 18:58:19;;;;;;;1.70;0.55;;;10.30;56.60;;;;;;20591531;28;20101;-76
2022/03/31 19:08:20;;;;;;;0.93;0.50;;;10.30;56.50;;;;;;20572167;28;20039;-75
2022/03/31 19:18:20;;;;;;;1.02;0.50;;;10.30;56.40;;;;;;20579510;28;20035;-75
2022/03/31 19:28:21;;;;;;;0.43;0.30;;;10.30;56.30;;;;;;20583422;28;20046;-74
2022/03/31 19:38:22;;;;;;;0.65;0.30;;;10.20;56.20;;;;;;20581291;28;20045;-75
2022/03/31 19:48:23;;;;;;;0.63;0.50;;;10.20;56.20;;;;;;20598102;28;20489;-74
2022/03/31 19:58:24;;;;;;;1.27;0.60;;;10.20;56.10;;;;;;20579551;28;20061;-74
2022/03/31 20:08:25;;;;;;;0.65;0.40;;;10.20;56.00;;;;;;20561438;28;20039;-77
2022/03/31 20:18:25;;;;;;;1.42;0.50;;;10.20;56.00;;;;;;20563277;28;20056;-76
2022/03/31 20:28:26;;;;;;;3.27;0.93;;;10.20;56.10;;;;;;20564097;28;20042;-76
2022/03/31 20:38:27;;;;;;;0.57;0.30;;;10.20;56.10;;;;;;20563944;28;20385;-76
2022/03/31 20:48:28;;;;;;;0.55;0.43;;;10.10;56.10;;;;;;20564274;28;20046;-77
2022/03/31 20:58:29;;;;;;;1.13;0.45;;;10.10;56.10;;;;;;20564493;28;20038;-76
2022/03/31 21:08:29;;;;;;;1.38;0.40;;;10.20;56.10;;;;;;20579784;28;20096;-76
2022/03/31 21:18:31;;;;;;;1.27;0.70;;;10.20;56.10;;;;;;20579718;28;20035;-76
2022/03/31 21:28:33;;;;;;;0.90;0.60;;;10.10;56.00;;;;;;20579603;28;20421;-75
2022/03/31 21:38:33;;;;;;;0.80;0.50;;;10.10;55.90;;;;;;20546890;28;20030;-77
2022/03/31 21:48:34;;;;;;;1.38;0.60;;;10.10;55.90;;;;;;20546578;28;20039;-75
2022/03/31 21:58:35;;;;;;;4.40;0.60;;;10.10;55.80;;;;;;20561973;28;20469;-76
2022/03/31 22:18:56;;;;;;;0.98;0.60;;;10.10;55.50;;;;;;20557205;28;20034;-76
2022/03/31 22:28:56;;;;;;;0.90;0.60;;;10.10;55.40;;;;;;20574345;28;20042;-76
2022/03/31 22:38:57;;;;;;;1.65;0.70;;;10.10;55.40;;;;;;20573658;28;20125;-75
2022/03/31 22:49:00;;;;;;;1.17;0.57;;;10.00;55.40;;;;;;20573729;28;20488;-76
2022/03/31 22:59:01;;;;;;;0.95;0.47;;;10.00;55.60;;;;;;20572732;28;20042;-76
2022/03/31 23:09:02;;;;;;;1.05;0.63;;;10.00;55.60;;;;;;20588035;28;20038;-76
2022/03/31 23:19:02;;;;;;;1.20;0.52;;;10.00;55.70;;;;;;20555814;28;20034;-77
2022/03/31 23:29:04;;;;;;;1.55;0.70;;;10.00;55.70;;;;;;20585567;28;20433;-75
2022/03/31 23:39:06;;;;;;;0.80;0.50;;;9.90;55.70;;;;;;20570120;28;20065;-76
2022/03/31 23:49:07;;;;;;;1.20;0.60;;;9.90;55.80;;;;;;20585502;28;20039;-76
2022/03/31 23:59:11;;;;;;;1.27;0.60;;;10.00;56.00;;;;;;20551566;28;20122;-76
